PWSweather.com
Personal Weather Stations
Station Observations
CW4114
Near Downtown, Rogers City, MI 49779

Near DowntownRogers City, MI 49779

Lat: 45.417443, Lon: -83.810642

Elevation: 605

Station Type: Davis Vantage Pro2 w/Solar

Latest ConditionsUpdated 4:13:58 PM EDT Sunday, Jul 24, 2016
Currently Today's Max Today's Min Today's Average
Temperature 83.8°F28.8°C 86.4°F30.2°C 66.2°F19.0°C 75.3°F24.1°C
Dew Point 73.4°F23.0°C 74.7°F23.7°C 59.7°F15.4°C 65.6°F18.7°C
Winds 3.8 mph SW6.1 kmh SW 9.4 mph S15.1 kmh S - 4.0 mph 6.4 kmh
Wind Gusts 7.4 mph11.9 kmh 20.1 mph32.3 kmh - -
Humidity 71% 92% 59% 72%
Pressure 29.78 in1008.5 mb 29.93 in1013.5 mb 29.78 in1008.5 mb -
Precipitation - 0.44 in11.2 mm - -
Hour Temp Dew Point Humidity Winds Wind Gusts Pressure Precip Precip Rate Daily Precip Total
04:13 PM 83.8°F28.8°C 73.4°F23.0°C 71% 3.8 mph SW6.1 kmh SW 7.4 mph11.9 kmh 29.78 in1008.5 mb 0.00 in0.0 mm 0.00 in0.0 mm 0.44 in11.2 mm
04:08 PM 84.6°F29.2°C 73.8°F23.2°C 70% 2.2 mph WSW3.5 kmh WSW 7.4 mph11.9 kmh 29.79 in1008.8 mb 0.00 in0.0 mm 0.00 in0.0 mm 0.44 in11.2 mm
04:03 PM 84.7°F29.3°C 74.7°F23.7°C 72% 3.6 mph W5.8 kmh W 6.3 mph10.1 kmh 29.79 in1008.8 mb 0.00 in0.0 mm 0.00 in0.0 mm 0.44 in11.2 mm
03:58 PM 83.1°F28.4°C 73.6°F23.1°C 73% 4.9 mph SW7.9 kmh SW 7.4 mph11.9 kmh 29.79 in1008.8 mb 0.00 in0.0 mm 0.00 in0.0 mm 0.44 in11.2 mm
03:53 PM 82.6°F28.1°C 73.4°F23.0°C 74% 5.4 mph WSW8.7 kmh WSW 8.5 mph13.7 kmh 29.79 in1008.8 mb 0.00 in0.0 mm 0.00 in0.0 mm 0.44 in11.2 mm
03:48 PM 82.6°F28.1°C 73.4°F23.0°C 74% 3.6 mph W5.8 kmh W 7.4 mph11.9 kmh 29.79 in1008.8 mb 0.00 in0.0 mm 0.00 in0.0 mm 0.44 in11.2 mm
03:43 PM 82.6°F28.1°C 73.0°F22.8°C 73% 6.9 mph SW11.1 kmh SW 11.6 mph18.7 kmh 29.79 in1008.8 mb 0.00 in0.0 mm 0.00 in0.0 mm 0.44 in11.2 mm
03:38 PM 82.6°F28.1°C 73.4°F23.0°C 74% 4.3 mph WSW6.9 kmh WSW 12.8 mph20.6 kmh 29.79 in1008.8 mb 0.00 in0.0 mm 0.00 in0.0 mm 0.44 in11.2 mm
03:33 PM 82.6°F28.1°C 73.4°F23.0°C 74% 4.3 mph SW6.9 kmh SW 12.8 mph20.6 kmh 29.80 in1009.1 mb 0.00 in0.0 mm 0.00 in0.0 mm 0.44 in11.2 mm
03:28 PM 82.8°F28.2°C 73.2°F22.9°C 73% 6.0 mph WSW9.7 kmh WSW 11.6 mph18.7 kmh 29.80 in1009.1 mb 0.00 in0.0 mm 0.00 in0.0 mm 0.44 in11.2 mm
03:23 PM 83.1°F28.4°C 73.2°F22.9°C 72% 6.5 mph W10.5 kmh W 12.8 mph20.6 kmh 29.79 in1008.8 mb 0.00 in0.0 mm 0.00 in0.0 mm 0.44 in11.2 mm
03:18 PM 83.5°F28.6°C 73.6°F23.1°C 72% 5.1 mph SSW8.2 kmh SSW 9.6 mph15.4 kmh 29.79 in1008.8 mb 0.00 in0.0 mm 0.00 in0.0 mm 0.44 in11.2 mm
03:13 PM 83.5°F28.6°C 73.6°F23.1°C 72% 3.6 mph WSW5.8 kmh WSW 8.5 mph13.7 kmh 29.79 in1008.8 mb 0.00 in0.0 mm 0.00 in0.0 mm 0.44 in11.2 mm
03:08 PM 83.5°F28.6°C 73.6°F23.1°C 72% 4.5 mph SW7.2 kmh SW 8.5 mph13.7 kmh 29.79 in1008.8 mb 0.00 in0.0 mm 0.00 in0.0 mm 0.44 in11.2 mm
03:03 PM 83.3°F28.5°C 73.4°F23.0°C 72% 6.0 mph SW9.7 kmh SW 9.6 mph15.4 kmh 29.79 in1008.8 mb 0.00 in0.0 mm 0.00 in0.0 mm 0.44 in11.2 mm
02:58 PM 83.3°F28.5°C 73.8°F23.2°C 73% 3.4 mph WSW5.5 kmh WSW 10.5 mph16.9 kmh 29.79 in1008.8 mb 0.00 in0.0 mm 0.00 in0.0 mm 0.44 in11.2 mm
02:53 PM 83.1°F28.4°C 73.2°F22.9°C 72% 3.8 mph WSW6.1 kmh WSW 9.6 mph15.4 kmh 29.79 in1008.8 mb 0.00 in0.0 mm 0.00 in0.0 mm 0.44 in11.2 mm
02:48 PM 82.9°F28.3°C 73.4°F23.0°C 73% 3.4 mph W5.5 kmh W 8.5 mph13.7 kmh 29.79 in1008.8 mb 0.00 in0.0 mm 0.00 in0.0 mm 0.44 in11.2 mm
02:43 PM 83.3°F28.5°C 72.9°F22.7°C 71% 5.6 mph WSW9.0 kmh WSW 12.8 mph20.6 kmh 29.80 in1009.1 mb 0.00 in0.0 mm 0.00 in0.0 mm 0.44 in11.2 mm
02:38 PM 83.7°F28.7°C 73.2°F22.9°C 71% 5.6 mph WSW9.0 kmh WSW 9.6 mph15.4 kmh 29.80 in1009.1 mb 0.00 in0.0 mm 0.00 in0.0 mm 0.44 in11.2 mm
02:33 PM 83.8°F28.8°C 72.5°F22.5°C 69% 4.9 mph W7.9 kmh W 10.5 mph16.9 kmh 29.80 in1009.1 mb 0.00 in0.0 mm 0.00 in0.0 mm 0.44 in11.2 mm
02:28 PM 84.4°F29.1°C 73.0°F22.8°C 69% 4.5 mph W7.2 kmh W 11.6 mph18.7 kmh 29.80 in1009.1 mb 0.00 in0.0 mm 0.00 in0.0 mm 0.44 in11.2 mm
02:23 PM 84.7°F29.3°C 73.0°F22.8°C 68% 3.8 mph SW6.1 kmh SW 9.6 mph15.4 kmh 29.80 in1009.1 mb 0.00 in0.0 mm 0.00 in0.0 mm 0.44 in11.2 mm
02:18 PM 84.9°F29.4°C 72.7°F22.6°C 67% 3.4 mph W5.5 kmh W 6.3 mph10.1 kmh 29.79 in1008.8 mb 0.00 in0.0 mm 0.00 in0.0 mm 0.44 in11.2 mm
02:13 PM 85.3°F29.6°C 73.0°F22.8°C 67% 5.6 mph WSW9.0 kmh WSW 10.5 mph16.9 kmh 29.80 in1009.1 mb 0.00 in0.0 mm 0.00 in0.0 mm 0.44 in11.2 mm
02:08 PM 85.3°F29.6°C 73.0°F22.8°C 67% 3.8 mph S6.1 kmh S 11.6 mph18.7 kmh 29.80 in1009.1 mb 0.00 in0.0 mm 0.00 in0.0 mm 0.44 in11.2 mm
02:03 PM 85.8°F29.9°C 73.2°F22.9°C 66% 2.9 mph WSW4.7 kmh WSW 11.6 mph18.7 kmh 29.80 in1009.1 mb 0.00 in0.0 mm 0.00 in0.0 mm 0.44 in11.2 mm
01:58 PM 86.4°F30.2°C 72.7°F22.6°C 64% 5.1 mph WSW8.2 kmh WSW 11.6 mph18.7 kmh 29.80 in1009.1 mb 0.00 in0.0 mm 0.00 in0.0 mm 0.44 in11.2 mm
01:53 PM 86.2°F30.1°C 73.4°F23.0°C 66% 2.9 mph WSW4.7 kmh WSW 10.5 mph16.9 kmh 29.80 in1009.1 mb 0.00 in0.0 mm 0.00 in0.0 mm 0.44 in11.2 mm
01:48 PM 86.2°F30.1°C 73.0°F22.8°C 65% 4.9 mph NW7.9 kmh NW 9.6 mph15.4 kmh 29.80 in1009.1 mb 0.00 in0.0 mm 0.00 in0.0 mm 0.44 in11.2 mm
01:43 PM 86.2°F30.1°C 73.4°F23.0°C 66% 4.3 mph SW6.9 kmh SW 9.6 mph15.4 kmh 29.80 in1009.1 mb 0.00 in0.0 mm 0.00 in0.0 mm 0.44 in11.2 mm
01:38 PM 85.5°F29.7°C 72.9°F22.7°C 66% 3.4 mph WSW5.5 kmh WSW 8.5 mph13.7 kmh 29.81 in1009.5 mb 0.00 in0.0 mm 0.00 in0.0 mm 0.44 in11.2 mm
01:33 PM 85.3°F29.6°C 72.1°F22.3°C 65% 4.5 mph SW7.2 kmh SW 11.6 mph18.7 kmh 29.81 in1009.5 mb 0.00 in0.0 mm 0.00 in0.0 mm 0.44 in11.2 mm
01:28 PM 84.7°F29.3°C 72.5°F22.5°C 67% 5.1 mph S8.2 kmh S 13.9 mph22.4 kmh 29.81 in1009.5 mb 0.00 in0.0 mm 0.00 in0.0 mm 0.44 in11.2 mm
01:23 PM 83.8°F28.8°C 73.0°F22.8°C 70% 2.9 mph SW4.7 kmh SW 11.6 mph18.7 kmh 29.81 in1009.5 mb 0.00 in0.0 mm 0.00 in0.0 mm 0.44 in11.2 mm
01:18 PM 84.4°F29.1°C 72.1°F22.3°C 67% 5.8 mph S9.3 kmh S 12.8 mph20.6 kmh 29.81 in1009.5 mb 0.00 in0.0 mm 0.00 in0.0 mm 0.44 in11.2 mm
01:13 PM 84.6°F29.2°C 72.0°F22.2°C 66% 5.8 mph S9.3 kmh S 15.9 mph25.6 kmh 29.81 in1009.5 mb 0.00 in0.0 mm 0.00 in0.0 mm 0.44 in11.2 mm
01:08 PM 84.9°F29.4°C 72.3°F22.4°C 66% 7.6 mph SSW12.2 kmh SSW 13.9 mph22.4 kmh 29.81 in1009.5 mb 0.00 in0.0 mm 0.00 in0.0 mm 0.44 in11.2 mm
01:03 PM 84.7°F29.3°C 72.5°F22.5°C 67% 5.4 mph S8.7 kmh S 12.8 mph20.6 kmh 29.81 in1009.5 mb 0.00 in0.0 mm 0.00 in0.0 mm 0.44 in11.2 mm
12:58 PM 84.2°F29.0°C 71.6°F22.0°C 66% 3.8 mph S6.1 kmh S 14.8 mph23.8 kmh 29.81 in1009.5 mb 0.00 in0.0 mm 0.00 in0.0 mm 0.44 in11.2 mm
12:53 PM 83.8°F28.8°C 72.1°F22.3°C 68% 6.7 mph SW10.8 kmh SW 11.6 mph18.7 kmh 29.81 in1009.5 mb 0.00 in0.0 mm 0.00 in0.0 mm 0.44 in11.2 mm
12:48 PM 83.7°F28.7°C 71.6°F22.0°C 67% 6.5 mph SSE10.5 kmh SSE 13.9 mph22.4 kmh 29.81 in1009.5 mb 0.00 in0.0 mm 0.00 in0.0 mm 0.44 in11.2 mm
12:43 PM 83.7°F28.7°C 71.6°F22.0°C 67% 4.7 mph SW7.6 kmh SW 13.9 mph22.4 kmh 29.81 in1009.5 mb 0.00 in0.0 mm 0.00 in0.0 mm 0.44 in11.2 mm
12:38 PM 83.7°F28.7°C 71.6°F22.0°C 67% 9.2 mph SSW14.8 kmh SSW 18.1 mph29.1 kmh 29.81 in1009.5 mb 0.00 in0.0 mm 0.00 in0.0 mm 0.44 in11.2 mm
12:33 PM 83.8°F28.8°C 71.8°F22.1°C 67% 6.7 mph W10.8 kmh W 18.1 mph29.1 kmh 29.80 in1009.1 mb 0.00 in0.0 mm 0.00 in0.0 mm 0.44 in11.2 mm
12:28 PM 84.4°F29.1°C 71.8°F22.1°C 66% 9.4 mph S15.1 kmh S 13.9 mph22.4 kmh 29.80 in1009.1 mb 0.00 in0.0 mm 0.00 in0.0 mm 0.44 in11.2 mm
12:23 PM 83.3°F28.5°C 71.6°F22.0°C 68% 6.7 mph SW10.8 kmh SW 14.8 mph23.8 kmh 29.80 in1009.1 mb 0.00 in0.0 mm 0.00 in0.0 mm 0.44 in11.2 mm
12:18 PM 83.3°F28.5°C 71.6°F22.0°C 68% 4.5 mph SE7.2 kmh SE 19.0 mph30.6 kmh 29.80 in1009.1 mb 0.00 in0.0 mm 0.00 in0.0 mm 0.44 in11.2 mm
12:13 PM 82.8°F28.2°C 71.1°F21.7°C 68% 8.5 mph SW13.7 kmh SW 20.1 mph32.3 kmh 29.79 in1008.8 mb 0.00 in0.0 mm 0.00 in0.0 mm 0.44 in11.2 mm
12:08 PM 83.1°F28.4°C 71.1°F21.7°C 67% 7.8 mph WNW12.6 kmh WNW 15.9 mph25.6 kmh 29.80 in1009.1 mb 0.00 in0.0 mm 0.00 in0.0 mm 0.44 in11.2 mm
12:03 PM 83.8°F28.8°C 71.2°F21.8°C 66% 5.4 mph SW8.7 kmh SW 15.9 mph25.6 kmh 29.82 in1009.8 mb 0.00 in0.0 mm 0.00 in0.0 mm 0.44 in11.2 mm
11:58 AM 84.0°F28.9°C 71.4°F21.9°C 66% 6.9 mph SW11.1 kmh SW 11.6 mph18.7 kmh 29.82 in1009.8 mb 0.00 in0.0 mm 0.00 in0.0 mm 0.44 in11.2 mm
11:53 AM 83.7°F28.7°C 72.3°F22.4°C 69% 6.0 mph W9.7 kmh W 11.6 mph18.7 kmh 29.82 in1009.8 mb 0.00 in0.0 mm 0.00 in0.0 mm 0.44 in11.2 mm
11:48 AM 83.1°F28.4°C 71.4°F21.9°C 68% 6.5 mph WSW10.5 kmh WSW 12.8 mph20.6 kmh 29.82 in1009.8 mb 0.00 in0.0 mm 0.00 in0.0 mm 0.44 in11.2 mm
11:43 AM 82.2°F27.9°C 71.4°F21.9°C 70% 3.8 mph SW6.1 kmh SW 9.6 mph15.4 kmh 29.82 in1009.8 mb 0.00 in0.0 mm 0.00 in0.0 mm 0.44 in11.2 mm
11:38 AM 81.9°F27.7°C 71.1°F21.7°C 70% 4.0 mph S6.4 kmh S 11.6 mph18.7 kmh 29.83 in1010.2 mb 0.00 in0.0 mm 0.00 in0.0 mm 0.44 in11.2 mm
11:33 AM 81.1°F27.3°C 70.3°F21.3°C 70% 6.0 mph SSE9.7 kmh SSE 11.6 mph18.7 kmh 29.83 in1010.2 mb 0.00 in0.0 mm 0.00 in0.0 mm 0.44 in11.2 mm
11:28 AM 80.8°F27.1°C 70.5°F21.4°C 71% 3.8 mph SSW6.1 kmh SSW 12.8 mph20.6 kmh 29.83 in1010.2 mb 0.00 in0.0 mm 0.00 in0.0 mm 0.44 in11.2 mm
11:23 AM 80.8°F27.1°C 71.2°F21.8°C 73% 4.5 mph S7.2 kmh S 10.5 mph16.9 kmh 29.84 in1010.5 mb 0.00 in0.0 mm 0.00 in0.0 mm 0.44 in11.2 mm
11:18 AM 80.4°F26.9°C 71.4°F21.9°C 74% 3.8 mph SSE6.1 kmh SSE 8.5 mph13.7 kmh 29.84 in1010.5 mb 0.00 in0.0 mm 0.00 in0.0 mm 0.44 in11.2 mm
11:13 AM 79.9°F26.6°C 71.2°F21.8°C 75% 4.7 mph S7.6 kmh S 10.5 mph16.9 kmh 29.84 in1010.5 mb 0.00 in0.0 mm 0.00 in0.0 mm 0.44 in11.2 mm
11:08 AM 78.6°F25.9°C 70.0°F21.1°C 75% 5.4 mph S8.7 kmh S 9.6 mph15.4 kmh 29.84 in1010.5 mb 0.00 in0.0 mm 0.00 in0.0 mm 0.44 in11.2 mm
11:03 AM 78.4°F25.8°C 70.7°F21.5°C 77% 4.7 mph SW7.6 kmh SW 8.5 mph13.7 kmh 29.84 in1010.5 mb 0.00 in0.0 mm 0.00 in0.0 mm 0.44 in11.2 mm
10:58 AM 78.1°F25.6°C 70.7°F21.5°C 78% 4.0 mph SSE6.4 kmh SSE 6.3 mph10.1 kmh 29.85 in1010.8 mb 0.00 in0.0 mm 0.00 in0.0 mm 0.44 in11.2 mm
10:53 AM 76.8°F24.9°C 69.4°F20.8°C 78% 4.5 mph SE7.2 kmh SE 9.6 mph15.4 kmh 29.85 in1010.8 mb 0.00 in0.0 mm 0.00 in0.0 mm 0.44 in11.2 mm
10:48 AM 75.9°F24.4°C 69.3°F20.7°C 80% 3.1 mph S5.0 kmh S 9.6 mph15.4 kmh 29.85 in1010.8 mb 0.00 in0.0 mm 0.00 in0.0 mm 0.44 in11.2 mm
10:43 AM 75.6°F24.2°C 68.9°F20.5°C 80% 4.3 mph SSE6.9 kmh SSE 7.4 mph11.9 kmh 29.85 in1010.8 mb 0.00 in0.0 mm 0.00 in0.0 mm 0.44 in11.2 mm
10:38 AM 75.0°F23.9°C 69.1°F20.6°C 82% 2.7 mph S4.3 kmh S 6.3 mph10.1 kmh 29.85 in1010.8 mb 0.00 in0.0 mm 0.00 in0.0 mm 0.44 in11.2 mm
10:33 AM 73.8°F23.2°C 68.5°F20.3°C 84% 3.8 mph S6.1 kmh S 7.4 mph11.9 kmh 29.85 in1010.8 mb 0.00 in0.0 mm 0.00 in0.0 mm 0.44 in11.2 mm
10:28 AM 73.0°F22.8°C 68.5°F20.3°C 86% 2.2 mph SSW3.5 kmh SSW 5.4 mph8.7 kmh 29.86 in1011.2 mb 0.00 in0.0 mm 0.00 in0.0 mm 0.44 in11.2 mm
10:23 AM 72.3°F22.4°C 67.8°F19.9°C 86% 3.8 mph S6.1 kmh S 6.3 mph10.1 kmh 29.86 in1011.2 mb 0.00 in0.0 mm 0.00 in0.0 mm 0.44 in11.2 mm
10:18 AM 71.4°F21.9°C 68.0°F20.0°C 89% 1.1 mph S1.8 kmh S 6.3 mph10.1 kmh 29.86 in1011.2 mb 0.00 in0.0 mm 0.00 in0.0 mm 0.44 in11.2 mm
10:13 AM 70.5°F21.4°C 67.5°F19.7°C 90% 3.1 mph SSE5.0 kmh SSE 7.4 mph11.9 kmh 29.86 in1011.2 mb 0.00 in0.0 mm 0.00 in0.0 mm 0.44 in11.2 mm
10:08 AM 70.2°F21.2°C 66.7°F19.3°C 89% 2.7 mph SSE4.3 kmh SSE 4.3 mph6.9 kmh 29.87 in1011.5 mb 0.00 in0.0 mm 0.00 in0.0 mm 0.44 in11.2 mm
10:03 AM 70.0°F21.1°C 66.6°F19.2°C 89% 3.8 mph SSE6.1 kmh SSE 6.3 mph10.1 kmh 29.87 in1011.5 mb 0.00 in0.0 mm 0.00 in0.0 mm 0.44 in11.2 mm
09:58 AM 69.8°F21.0°C 66.7°F19.3°C 90% 1.8 mph SE2.9 kmh SE 5.4 mph8.7 kmh 29.87 in1011.5 mb 0.00 in0.0 mm 0.00 in0.0 mm 0.44 in11.2 mm
09:53 AM 69.4°F20.8°C 66.0°F18.9°C 89% 2.0 mph S3.2 kmh S 6.3 mph10.1 kmh 29.88 in1011.9 mb 0.00 in0.0 mm 0.00 in0.0 mm 0.44 in11.2 mm
09:48 AM 69.3°F20.7°C 65.8°F18.8°C 89% 2.2 mph S3.5 kmh S 5.4 mph8.7 kmh 29.88 in1011.9 mb 0.00 in0.0 mm 0.00 in0.0 mm 0.44 in11.2 mm
09:43 AM 69.1°F20.6°C 66.0°F18.9°C 90% 0.9 mph S1.4 kmh S 3.1 mph5.0 kmh 29.88 in1011.9 mb 0.00 in0.0 mm 0.00 in0.0 mm 0.44 in11.2 mm
09:38 AM 68.7°F20.4°C 65.7°F18.7°C 90% 2.0 mph SSW3.2 kmh SSW 3.1 mph5.0 kmh 29.88 in1011.9 mb 0.00 in0.0 mm 0.00 in0.0 mm 0.44 in11.2 mm
09:33 AM 68.7°F20.4°C 65.7°F18.7°C 90% 1.8 mph SSW2.9 kmh SSW 3.1 mph5.0 kmh 29.88 in1011.9 mb 0.00 in0.0 mm 0.00 in0.0 mm 0.44 in11.2 mm
09:28 AM 68.5°F20.3°C 65.5°F18.6°C 90% 0.9 mph S1.4 kmh S 2.0 mph3.2 kmh 29.89 in1012.2 mb 0.00 in0.0 mm 0.00 in0.0 mm 0.44 in11.2 mm
09:23 AM 68.4°F20.2°C 65.3°F18.5°C 90% 0.4 mph SSW0.6 kmh SSW 2.0 mph3.2 kmh 29.89 in1012.2 mb 0.00 in0.0 mm 0.00 in0.0 mm 0.44 in11.2 mm
09:18 AM 68.4°F20.2°C 65.3°F18.5°C 90% 0.9 mph SSW1.4 kmh SSW 4.3 mph6.9 kmh 29.89 in1012.2 mb 0.00 in0.0 mm 0.00 in0.0 mm 0.44 in11.2 mm
09:13 AM 68.4°F20.2°C 65.3°F18.5°C 90% 2.7 mph SSW4.3 kmh SSW 7.4 mph11.9 kmh 29.89 in1012.2 mb 0.00 in0.0 mm 0.00 in0.0 mm 0.44 in11.2 mm
09:08 AM 68.2°F20.1°C 65.1°F18.4°C 90% 3.1 mph SW5.0 kmh SW 6.3 mph10.1 kmh 29.88 in1011.9 mb 0.00 in0.0 mm 0.00 in0.0 mm 0.44 in11.2 mm
09:03 AM 68.0°F20.0°C 64.9°F18.3°C 90% 1.1 mph S1.8 kmh S 4.3 mph6.9 kmh 29.89 in1012.2 mb 0.00 in0.0 mm 0.00 in0.0 mm 0.44 in11.2 mm
08:58 AM 67.8°F19.9°C 64.8°F18.2°C 90% 1.6 mph S2.6 kmh S 4.3 mph6.9 kmh 29.88 in1011.9 mb 0.00 in0.0 mm 0.00 in0.0 mm 0.44 in11.2 mm
08:53 AM 67.6°F19.8°C 64.9°F18.3°C 91% 2.5 mph S4.0 kmh S 6.3 mph10.1 kmh 29.89 in1012.2 mb 0.00 in0.0 mm 0.00 in0.0 mm 0.44 in11.2 mm
08:48 AM 67.6°F19.8°C 64.9°F18.3°C 91% 0.2 mph SW0.3 kmh SW 3.1 mph5.0 kmh 29.89 in1012.2 mb 0.00 in0.0 mm 0.00 in0.0 mm 0.44 in11.2 mm
08:43 AM 67.5°F19.7°C 64.8°F18.2°C 91% 1.6 mph S2.6 kmh S 4.3 mph6.9 kmh 29.88 in1011.9 mb 0.00 in0.0 mm 0.00 in0.0 mm 0.44 in11.2 mm
08:38 AM 67.5°F19.7°C 64.8°F18.2°C 91% 1.3 mph S2.1 kmh S 4.3 mph6.9 kmh 29.88 in1011.9 mb 0.00 in0.0 mm 0.00 in0.0 mm 0.44 in11.2 mm
08:33 AM 67.5°F19.7°C 64.8°F18.2°C 91% 1.3 mph SW2.1 kmh SW 3.1 mph5.0 kmh 29.89 in1012.2 mb 0.00 in0.0 mm 0.00 in0.0 mm 0.44 in11.2 mm
08:28 AM 67.3°F19.6°C 64.2°F17.9°C 90% 1.8 mph S2.9 kmh S 5.4 mph8.7 kmh 29.89 in1012.2 mb 0.00 in0.0 mm 0.00 in0.0 mm 0.44 in11.2 mm
08:23 AM 67.1°F19.5°C 64.0°F17.8°C 90% 2.0 mph S3.2 kmh S 5.4 mph8.7 kmh 29.89 in1012.2 mb 0.00 in0.0 mm 0.00 in0.0 mm 0.44 in11.2 mm
08:18 AM 66.9°F19.4°C 63.9°F17.7°C 90% 3.8 mph S6.1 kmh S 5.4 mph8.7 kmh 29.90 in1012.5 mb 0.14 in3.6 mm 0.00 in0.0 mm 0.44 in11.2 mm
08:13 AM 66.9°F19.4°C 63.9°F17.7°C 90% 3.1 mph S5.0 kmh S 6.3 mph10.1 kmh 29.89 in1012.2 mb 0.38 in9.7 mm 0.00 in0.0 mm 0.44 in11.2 mm
08:08 AM 66.7°F19.3°C 64.0°F17.8°C 91% 1.6 mph S2.6 kmh S 4.3 mph6.9 kmh 29.89 in1012.2 mb 0.43 in10.9 mm 0.00 in0.0 mm 0.44 in11.2 mm
08:03 AM 66.7°F19.3°C 64.0°F17.8°C 91% 2.7 mph S4.3 kmh S 6.3 mph10.1 kmh 29.90 in1012.5 mb 0.44 in11.2 mm 0.00 in0.0 mm 0.44 in11.2 mm
07:58 AM 66.6°F19.2°C 63.9°F17.7°C 91% 2.2 mph S3.5 kmh S 6.3 mph10.1 kmh 29.89 in1012.2 mb 0.44 in11.2 mm 0.00 in0.0 mm 0.44 in11.2 mm
07:53 AM 66.6°F19.2°C 64.2°F17.9°C 92% 2.2 mph SW3.5 kmh SW 5.4 mph8.7 kmh 29.89 in1012.2 mb 0.44 in11.2 mm 0.00 in0.0 mm 0.44 in11.2 mm
07:48 AM 66.6°F19.2°C 63.9°F17.7°C 91% 1.6 mph SSW2.6 kmh SSW 7.4 mph11.9 kmh 29.88 in1011.9 mb 0.44 in11.2 mm 0.00 in0.0 mm 0.44 in11.2 mm
07:43 AM 66.4°F19.1°C 63.7°F17.6°C 91% 2.7 mph SSW4.3 kmh SSW 7.4 mph11.9 kmh 29.89 in1012.2 mb 0.44 in11.2 mm 0.00 in0.0 mm 0.44 in11.2 mm
07:38 AM 66.4°F19.1°C 63.7°F17.6°C 91% 3.1 mph SSW5.0 kmh SSW 7.4 mph11.9 kmh 29.88 in1011.9 mb 0.44 in11.2 mm 0.00 in0.0 mm 0.44 in11.2 mm
07:33 AM 66.2°F19.0°C 63.5°F17.5°C 91% 2.2 mph SSW3.5 kmh SSW 7.4 mph11.9 kmh 29.88 in1011.9 mb 0.44 in11.2 mm 0.00 in0.0 mm 0.44 in11.2 mm
07:28 AM 66.4°F19.1°C 63.3°F17.4°C 90% 5.4 mph S8.7 kmh S 11.6 mph18.7 kmh 29.88 in1011.9 mb 0.44 in11.2 mm 0.00 in0.0 mm 0.44 in11.2 mm
07:23 AM 67.1°F19.5°C 63.5°F17.5°C 88% 5.1 mph SW8.2 kmh SW 11.6 mph18.7 kmh 29.88 in1011.9 mb 0.44 in11.2 mm 2.40 in61.0 mm 0.44 in11.2 mm
07:18 AM 68.7°F20.4°C 63.7°F17.6°C 84% 5.8 mph SW9.3 kmh SW 10.5 mph16.9 kmh 29.89 in1012.2 mb 0.24 in6.1 mm 2.52 in64.0 mm 0.24 in6.1 mm
07:13 AM 70.7°F21.5°C 63.5°F17.5°C 78% 6.7 mph WSW10.8 kmh WSW 12.8 mph20.6 kmh 29.90 in1012.5 mb 0.03 in0.8 mm 0.36 in9.1 mm 0.03 in0.8 mm
07:08 AM 71.8°F22.1°C 63.0°F17.2°C 74% 7.2 mph WSW11.6 kmh WSW 11.6 mph18.7 kmh 29.89 in1012.2 mb 0.00 in0.0 mm 0.00 in0.0 mm 0.00 in0.0 mm
07:03 AM 72.1°F22.3°C 61.9°F16.6°C 70% 6.0 mph S9.7 kmh S 13.9 mph22.4 kmh 29.88 in1011.9 mb 0.00 in0.0 mm 0.00 in0.0 mm 0.00 in0.0 mm
06:58 AM 72.3°F22.4°C 61.5°F16.4°C 69% 5.4 mph SW8.7 kmh SW 13.9 mph22.4 kmh 29.88 in1011.9 mb 0.00 in0.0 mm 0.00 in0.0 mm 0.00 in0.0 mm
06:53 AM 72.5°F22.5°C 61.3°F16.3°C 68% 6.0 mph SW9.7 kmh SW 10.5 mph16.9 kmh 29.88 in1011.9 mb 0.00 in0.0 mm 0.00 in0.0 mm 0.00 in0.0 mm
06:48 AM 72.5°F22.5°C 61.0°F16.1°C 67% 5.8 mph SSW9.3 kmh SSW 10.5 mph16.9 kmh 29.88 in1011.9 mb 0.00 in0.0 mm 0.00 in0.0 mm 0.00 in0.0 mm
06:43 AM 72.3°F22.4°C 60.8°F16.0°C 67% 6.7 mph S10.8 kmh S 12.8 mph20.6 kmh 29.88 in1011.9 mb 0.00 in0.0 mm 0.00 in0.0 mm 0.00 in0.0 mm
06:38 AM 72.3°F22.4°C 60.8°F16.0°C 67% 5.1 mph S8.2 kmh S 13.9 mph22.4 kmh 29.88 in1011.9 mb 0.00 in0.0 mm 0.00 in0.0 mm 0.00 in0.0 mm
06:33 AM 72.3°F22.4°C 60.8°F16.0°C 67% 5.1 mph SSW8.2 kmh SSW 13.9 mph22.4 kmh 29.88 in1011.9 mb 0.00 in0.0 mm 0.00 in0.0 mm 0.00 in0.0 mm
06:28 AM 72.3°F22.4°C 60.8°F16.0°C 67% 5.4 mph S8.7 kmh S 12.8 mph20.6 kmh 29.89 in1012.2 mb 0.00 in0.0 mm 0.00 in0.0 mm 0.00 in0.0 mm
06:23 AM 72.3°F22.4°C 60.8°F16.0°C 67% 4.5 mph SW7.2 kmh SW 11.6 mph18.7 kmh 29.88 in1011.9 mb 0.00 in0.0 mm 0.00 in0.0 mm 0.00 in0.0 mm
06:18 AM 72.3°F22.4°C 60.8°F16.0°C 67% 5.6 mph SW9.0 kmh SW 10.5 mph16.9 kmh 29.88 in1011.9 mb 0.00 in0.0 mm 0.00 in0.0 mm 0.00 in0.0 mm
06:13 AM 72.3°F22.4°C 60.3°F15.7°C 66% 2.7 mph SSW4.3 kmh SSW 10.5 mph16.9 kmh 29.88 in1011.9 mb 0.00 in0.0 mm 0.00 in0.0 mm 0.00 in0.0 mm
06:08 AM 72.3°F22.4°C 60.8°F16.0°C 67% 3.4 mph SW5.5 kmh SW 12.8 mph20.6 kmh 29.88 in1011.9 mb 0.00 in0.0 mm 0.00 in0.0 mm 0.00 in0.0 mm
06:03 AM 72.3°F22.4°C 60.8°F16.0°C 67% 4.5 mph SW7.2 kmh SW 13.9 mph22.4 kmh 29.88 in1011.9 mb 0.00 in0.0 mm 0.00 in0.0 mm 0.00 in0.0 mm
05:58 AM 72.3°F22.4°C 60.8°F16.0°C 67% 4.0 mph SSW6.4 kmh SSW 11.6 mph18.7 kmh 29.88 in1011.9 mb 0.00 in0.0 mm 0.00 in0.0 mm 0.00 in0.0 mm
05:53 AM 72.1°F22.3°C 60.6°F15.9°C 67% 5.1 mph S8.2 kmh S 12.8 mph20.6 kmh 29.88 in1011.9 mb 0.00 in0.0 mm 0.00 in0.0 mm 0.00 in0.0 mm
05:48 AM 72.1°F22.3°C 60.6°F15.9°C 67% 4.0 mph SW6.4 kmh SW 10.5 mph16.9 kmh 29.88 in1011.9 mb 0.00 in0.0 mm 0.00 in0.0 mm 0.00 in0.0 mm
05:43 AM 72.1°F22.3°C 61.0°F16.1°C 68% 4.5 mph SSW7.2 kmh SSW 12.8 mph20.6 kmh 29.88 in1011.9 mb 0.00 in0.0 mm 0.00 in0.0 mm 0.00 in0.0 mm
05:38 AM 72.1°F22.3°C 60.6°F15.9°C 67% 6.3 mph SW10.1 kmh SW 15.9 mph25.6 kmh 29.88 in1011.9 mb 0.00 in0.0 mm 0.00 in0.0 mm 0.00 in0.0 mm
05:33 AM 72.1°F22.3°C 60.6°F15.9°C 67% 6.0 mph S9.7 kmh S 9.6 mph15.4 kmh 29.88 in1011.9 mb 0.00 in0.0 mm 0.00 in0.0 mm 0.00 in0.0 mm
05:28 AM 72.1°F22.3°C 60.6°F15.9°C 67% 6.3 mph SSW10.1 kmh SSW 14.8 mph23.8 kmh 29.88 in1011.9 mb 0.00 in0.0 mm 0.00 in0.0 mm 0.00 in0.0 mm
05:23 AM 72.1°F22.3°C 60.1°F15.6°C 66% 5.8 mph S9.3 kmh S 12.8 mph20.6 kmh 29.88 in1011.9 mb 0.00 in0.0 mm 0.00 in0.0 mm 0.00 in0.0 mm
05:18 AM 72.1°F22.3°C 60.1°F15.6°C 66% 4.3 mph SSW6.9 kmh SSW 11.6 mph18.7 kmh 29.88 in1011.9 mb 0.00 in0.0 mm 0.00 in0.0 mm 0.00 in0.0 mm
05:13 AM 72.1°F22.3°C 60.1°F15.6°C 66% 6.5 mph S10.5 kmh S 11.6 mph18.7 kmh 29.88 in1011.9 mb 0.00 in0.0 mm 0.00 in0.0 mm 0.00 in0.0 mm
05:08 AM 72.0°F22.2°C 59.9°F15.5°C 66% 4.5 mph S7.2 kmh S 9.6 mph15.4 kmh 29.89 in1012.2 mb 0.00 in0.0 mm 0.00 in0.0 mm 0.00 in0.0 mm
05:03 AM 72.0°F22.2°C 59.9°F15.5°C 66% 4.5 mph S7.2 kmh S 10.5 mph16.9 kmh 29.89 in1012.2 mb 0.00 in0.0 mm 0.00 in0.0 mm 0.00 in0.0 mm
04:58 AM 72.0°F22.2°C 59.9°F15.5°C 66% 4.0 mph SW6.4 kmh SW 10.5 mph16.9 kmh 29.89 in1012.2 mb 0.00 in0.0 mm 0.00 in0.0 mm 0.00 in0.0 mm
04:53 AM 72.0°F22.2°C 59.9°F15.5°C 66% 4.7 mph SSW7.6 kmh SSW 8.5 mph13.7 kmh 29.90 in1012.5 mb 0.00 in0.0 mm 0.00 in0.0 mm 0.00 in0.0 mm
04:48 AM 72.1°F22.3°C 60.6°F15.9°C 67% 4.0 mph S6.4 kmh S 9.6 mph15.4 kmh 29.90 in1012.5 mb 0.00 in0.0 mm 0.00 in0.0 mm 0.00 in0.0 mm
04:43 AM 72.0°F22.2°C 60.4°F15.8°C 67% 5.1 mph S8.2 kmh S 8.5 mph13.7 kmh 29.90 in1012.5 mb 0.00 in0.0 mm 0.00 in0.0 mm 0.00 in0.0 mm
04:38 AM 72.0°F22.2°C 60.4°F15.8°C 67% 4.0 mph SSW6.4 kmh SSW 10.5 mph16.9 kmh 29.90 in1012.5 mb 0.00 in0.0 mm 0.00 in0.0 mm 0.00 in0.0 mm
04:33 AM 72.0°F22.2°C 60.4°F15.8°C 67% 4.3 mph WSW6.9 kmh WSW 7.4 mph11.9 kmh 29.90 in1012.5 mb 0.00 in0.0 mm 0.00 in0.0 mm 0.00 in0.0 mm
04:28 AM 72.0°F22.2°C 60.4°F15.8°C 67% 3.1 mph SSW5.0 kmh SSW 8.5 mph13.7 kmh 29.91 in1012.9 mb 0.00 in0.0 mm 0.00 in0.0 mm 0.00 in0.0 mm
04:23 AM 71.8°F22.1°C 60.3°F15.7°C 67% 1.3 mph SSW2.1 kmh SSW 8.5 mph13.7 kmh 29.90 in1012.5 mb 0.00 in0.0 mm 0.00 in0.0 mm 0.00 in0.0 mm
04:18 AM 71.8°F22.1°C 60.3°F15.7°C 67% 5.1 mph SW8.2 kmh SW 10.5 mph16.9 kmh 29.91 in1012.9 mb 0.00 in0.0 mm 0.00 in0.0 mm 0.00 in0.0 mm
04:13 AM 71.8°F22.1°C 60.3°F15.7°C 67% 4.7 mph SSW7.6 kmh SSW 9.6 mph15.4 kmh 29.91 in1012.9 mb 0.00 in0.0 mm 0.00 in0.0 mm 0.00 in0.0 mm
04:08 AM 71.8°F22.1°C 60.3°F15.7°C 67% 2.7 mph SSW4.3 kmh SSW 9.6 mph15.4 kmh 29.91 in1012.9 mb 0.00 in0.0 mm 0.00 in0.0 mm 0.00 in0.0 mm
04:03 AM 71.8°F22.1°C 60.3°F15.7°C 67% 3.6 mph S5.8 kmh S 9.6 mph15.4 kmh 29.91 in1012.9 mb 0.00 in0.0 mm 0.00 in0.0 mm 0.00 in0.0 mm
03:58 AM 71.4°F21.9°C 59.9°F15.5°C 67% 6.7 mph SSW10.8 kmh SSW 10.5 mph16.9 kmh 29.91 in1012.9 mb 0.00 in0.0 mm 0.00 in0.0 mm 0.00 in0.0 mm
03:53 AM 71.4°F21.9°C 60.3°F15.7°C 68% 2.2 mph SSE3.5 kmh SSE 7.4 mph11.9 kmh 29.91 in1012.9 mb 0.00 in0.0 mm 0.00 in0.0 mm 0.00 in0.0 mm
03:48 AM 71.4°F21.9°C 60.3°F15.7°C 68% 4.5 mph S7.2 kmh S 7.4 mph11.9 kmh 29.91 in1012.9 mb 0.00 in0.0 mm 0.00 in0.0 mm 0.00 in0.0 mm
03:43 AM 71.2°F21.8°C 60.1°F15.6°C 68% 2.7 mph SE4.3 kmh SE 6.3 mph10.1 kmh 29.92 in1013.2 mb 0.00 in0.0 mm 0.00 in0.0 mm 0.00 in0.0 mm
03:38 AM 71.2°F21.8°C 60.6°F15.9°C 69% 1.6 mph S2.6 kmh S 4.3 mph6.9 kmh 29.92 in1013.2 mb 0.00 in0.0 mm 0.00 in0.0 mm 0.00 in0.0 mm
03:33 AM 71.2°F21.8°C 60.1°F15.6°C 68% 1.8 mph S2.9 kmh S 7.4 mph11.9 kmh 29.92 in1013.2 mb 0.00 in0.0 mm 0.00 in0.0 mm 0.00 in0.0 mm
03:28 AM 71.4°F21.9°C 60.8°F16.0°C 69% 4.7 mph S7.6 kmh S 8.5 mph13.7 kmh 29.91 in1012.9 mb 0.00 in0.0 mm 0.00 in0.0 mm 0.00 in0.0 mm
03:23 AM 71.4°F21.9°C 60.8°F16.0°C 69% 4.3 mph S6.9 kmh S 9.6 mph15.4 kmh 29.91 in1012.9 mb 0.00 in0.0 mm 0.00 in0.0 mm 0.00 in0.0 mm
03:18 AM 71.4°F21.9°C 60.3°F15.7°C 68% 4.0 mph SE6.4 kmh SE 7.4 mph11.9 kmh 29.91 in1012.9 mb 0.00 in0.0 mm 0.00 in0.0 mm 0.00 in0.0 mm
03:13 AM 71.4°F21.9°C 60.3°F15.7°C 68% 4.3 mph SSE6.9 kmh SSE 7.4 mph11.9 kmh 29.91 in1012.9 mb 0.00 in0.0 mm 0.00 in0.0 mm 0.00 in0.0 mm
03:08 AM 71.6°F22.0°C 60.4°F15.8°C 68% 3.8 mph S6.1 kmh S 8.5 mph13.7 kmh 29.92 in1013.2 mb 0.00 in0.0 mm 0.00 in0.0 mm 0.00 in0.0 mm
03:03 AM 71.8°F22.1°C 60.6°F15.9°C 68% 0.7 mph SE1.1 kmh SE 7.4 mph11.9 kmh 29.91 in1012.9 mb 0.00 in0.0 mm 0.00 in0.0 mm 0.00 in0.0 mm
02:58 AM 71.8°F22.1°C 60.6°F15.9°C 68% 2.9 mph SE4.7 kmh SE 8.5 mph13.7 kmh 29.92 in1013.2 mb 0.00 in0.0 mm 0.00 in0.0 mm 0.00 in0.0 mm
02:53 AM 71.8°F22.1°C 60.6°F15.9°C 68% 3.1 mph SSE5.0 kmh SSE 4.3 mph6.9 kmh 29.92 in1013.2 mb 0.00 in0.0 mm 0.00 in0.0 mm 0.00 in0.0 mm
02:48 AM 71.8°F22.1°C 60.6°F15.9°C 68% 3.1 mph SSW5.0 kmh SSW 7.4 mph11.9 kmh 29.92 in1013.2 mb 0.00 in0.0 mm 0.00 in0.0 mm 0.00 in0.0 mm
02:43 AM 71.8°F22.1°C 60.6°F15.9°C 68% 2.0 mph SE3.2 kmh SE 5.4 mph8.7 kmh 29.92 in1013.2 mb 0.00 in0.0 mm 0.00 in0.0 mm 0.00 in0.0 mm
02:38 AM 72.0°F22.2°C 60.8°F16.0°C 68% 1.8 mph SE2.9 kmh SE 6.3 mph10.1 kmh 29.92 in1013.2 mb 0.00 in0.0 mm 0.00 in0.0 mm 0.00 in0.0 mm
02:33 AM 72.0°F22.2°C 60.8°F16.0°C 68% 2.5 mph S4.0 kmh S 6.3 mph10.1 kmh 29.92 in1013.2 mb 0.00 in0.0 mm 0.00 in0.0 mm 0.00 in0.0 mm
02:28 AM 72.0°F22.2°C 60.8°F16.0°C 68% 3.8 mph S6.1 kmh S 6.3 mph10.1 kmh 29.92 in1013.2 mb 0.00 in0.0 mm 0.00 in0.0 mm 0.00 in0.0 mm
02:23 AM 72.0°F22.2°C 60.8°F16.0°C 68% 1.3 mph S2.1 kmh S 4.3 mph6.9 kmh 29.92 in1013.2 mb 0.00 in0.0 mm 0.00 in0.0 mm 0.00 in0.0 mm
02:18 AM 72.0°F22.2°C 60.8°F16.0°C 68% 2.2 mph S3.5 kmh S 5.4 mph8.7 kmh 29.92 in1013.2 mb 0.00 in0.0 mm 0.00 in0.0 mm 0.00 in0.0 mm
02:13 AM 72.1°F22.3°C 61.0°F16.1°C 68% 2.2 mph SSE3.5 kmh SSE 6.3 mph10.1 kmh 29.93 in1013.5 mb 0.00 in0.0 mm 0.00 in0.0 mm 0.00 in0.0 mm
02:08 AM 72.1°F22.3°C 61.3°F16.3°C 69% 3.1 mph S5.0 kmh S 5.4 mph8.7 kmh 29.92 in1013.2 mb 0.00 in0.0 mm 0.00 in0.0 mm 0.00 in0.0 mm
02:03 AM 72.1°F22.3°C 61.0°F16.1°C 68% 3.4 mph SSW5.5 kmh SSW 6.3 mph10.1 kmh 29.93 in1013.5 mb 0.00 in0.0 mm 0.00 in0.0 mm 0.00 in0.0 mm
01:58 AM 72.1°F22.3°C 61.0°F16.1°C 68% 4.0 mph S6.4 kmh S 6.3 mph10.1 kmh 29.93 in1013.5 mb 0.00 in0.0 mm 0.00 in0.0 mm 0.00 in0.0 mm
01:53 AM 72.3°F22.4°C 61.2°F16.2°C 68% 2.5 mph SSW4.0 kmh SSW 5.4 mph8.7 kmh 29.92 in1013.2 mb 0.00 in0.0 mm 0.00 in0.0 mm 0.00 in0.0 mm
01:48 AM 72.5°F22.5°C 61.0°F16.1°C 67% 1.8 mph SW2.9 kmh SW 5.4 mph8.7 kmh 29.92 in1013.2 mb 0.00 in0.0 mm 0.00 in0.0 mm 0.00 in0.0 mm
01:43 AM 72.7°F22.6°C 61.2°F16.2°C 67% 3.4 mph S5.5 kmh S 7.4 mph11.9 kmh 29.93 in1013.5 mb 0.00 in0.0 mm 0.00 in0.0 mm 0.00 in0.0 mm
01:38 AM 72.7°F22.6°C 60.6°F15.9°C 66% 1.8 mph S2.9 kmh S 8.5 mph13.7 kmh 29.93 in1013.5 mb 0.00 in0.0 mm 0.00 in0.0 mm 0.00 in0.0 mm
01:33 AM 72.9°F22.7°C 60.8°F16.0°C 66% 4.0 mph S6.4 kmh S 7.4 mph11.9 kmh 29.93 in1013.5 mb 0.00 in0.0 mm 0.00 in0.0 mm 0.00 in0.0 mm
01:28 AM 73.0°F22.8°C 60.6°F15.9°C 65% 3.8 mph S6.1 kmh S 9.6 mph15.4 kmh 29.93 in1013.5 mb 0.00 in0.0 mm 0.00 in0.0 mm 0.00 in0.0 mm
01:23 AM 73.4°F23.0°C 60.4°F15.8°C 64% 4.0 mph SSE6.4 kmh SSE 8.5 mph13.7 kmh 29.93 in1013.5 mb 0.00 in0.0 mm 0.00 in0.0 mm 0.00 in0.0 mm
01:18 AM 73.8°F23.2°C 60.4°F15.8°C 63% 2.5 mph SSE4.0 kmh SSE 6.3 mph10.1 kmh 29.93 in1013.5 mb 0.00 in0.0 mm 0.00 in0.0 mm 0.00 in0.0 mm
01:13 AM 74.1°F23.4°C 59.7°F15.4°C 61% 3.1 mph SW5.0 kmh SW 8.5 mph13.7 kmh 29.93 in1013.5 mb 0.00 in0.0 mm 0.00 in0.0 mm 0.00 in0.0 mm
01:08 AM 74.3°F23.5°C 59.9°F15.5°C 61% 2.7 mph SSE4.3 kmh SSE 9.6 mph15.4 kmh 29.93 in1013.5 mb 0.00 in0.0 mm 0.00 in0.0 mm 0.00 in0.0 mm
01:03 AM 74.5°F23.6°C 60.1°F15.6°C 61% 3.6 mph S5.8 kmh S 10.5 mph16.9 kmh 29.93 in1013.5 mb 0.00 in0.0 mm 0.00 in0.0 mm 0.00 in0.0 mm
12:58 AM 74.5°F23.6°C 59.7°F15.4°C 60% 5.1 mph SSW8.2 kmh SSW 8.5 mph13.7 kmh 29.93 in1013.5 mb 0.00 in0.0 mm 0.00 in0.0 mm 0.00 in0.0 mm
12:53 AM 74.7°F23.7°C 59.9°F15.5°C 60% 2.5 mph SSW4.0 kmh SSW 7.4 mph11.9 kmh 29.93 in1013.5 mb 0.00 in0.0 mm 0.00 in0.0 mm 0.00 in0.0 mm
12:48 AM 74.8°F23.8°C 60.1°F15.6°C 60% 3.6 mph SW5.8 kmh SW 8.5 mph13.7 kmh 29.93 in1013.5 mb 0.00 in0.0 mm 0.00 in0.0 mm 0.00 in0.0 mm
12:43 AM 75.0°F23.9°C 60.3°F15.7°C 60% 3.1 mph SW5.0 kmh SW 5.4 mph8.7 kmh 29.93 in1013.5 mb 0.00 in0.0 mm 0.00 in0.0 mm 0.00 in0.0 mm
12:38 AM 75.0°F23.9°C 59.7°F15.4°C 59% 2.9 mph SW4.7 kmh SW 7.4 mph11.9 kmh 29.93 in1013.5 mb 0.00 in0.0 mm 0.00 in0.0 mm 0.00 in0.0 mm
12:33 AM 75.4°F24.1°C 60.1°F15.6°C 59% 4.3 mph SSW6.9 kmh SSW 9.6 mph15.4 kmh 29.93 in1013.5 mb 0.00 in0.0 mm 0.00 in0.0 mm 0.00 in0.0 mm
12:28 AM 75.4°F24.1°C 60.1°F15.6°C 59% 3.1 mph S5.0 kmh S 9.6 mph15.4 kmh 29.93 in1013.5 mb 0.00 in0.0 mm 0.00 in0.0 mm 0.00 in0.0 mm
12:23 AM 75.4°F24.1°C 60.1°F15.6°C 59% 4.0 mph SW6.4 kmh SW 10.5 mph16.9 kmh 29.93 in1013.5 mb 0.00 in0.0 mm 0.00 in0.0 mm 0.00 in0.0 mm
12:18 AM 75.4°F24.1°C 60.1°F15.6°C 59% 3.8 mph WSW6.1 kmh WSW 8.5 mph13.7 kmh 29.93 in1013.5 mb 0.00 in0.0 mm 0.00 in0.0 mm 0.00 in0.0 mm
12:13 AM 75.2°F24.0°C 59.9°F15.5°C 59% 3.4 mph S5.5 kmh S 7.4 mph11.9 kmh 29.93 in1013.5 mb 0.00 in0.0 mm 0.00 in0.0 mm 0.00 in0.0 mm
12:08 AM 75.0°F23.9°C 60.3°F15.7°C 60% 3.4 mph SW5.5 kmh SW 7.4 mph11.9 kmh 29.93 in1013.5 mb 0.00 in0.0 mm 0.00 in0.0 mm 0.00 in0.0 mm
12:03 AM -5537.2°C -5537.2°C - - N16091.8 kmh N -- -338605.1 mb 0.00 in0.0 mm 0.00 in0.0 mm 0.00 in0.0 mm